Time;durP1;ratioP1;P1;durP2;ratioP2;P2;SDS_P1;SDS_P2;PMS_P1;PMS_P2;Temp;Humidity;BMP_temperature;BMP_pressure;BME280_temperature;BME280_humidity;BME280_pressure;Samples;Min_cycle;Max_cycle;Signal;HPM_P1;HPM_P2
2023/12/18 00:02:10;;;;;;;21.27;9.13;;;8.20;99.90;;;;;;5044629;28;20053;-81
2023/12/18 00:04:36;;;;;;;17.63;9.00;;;8.10;99.90;;;;;;5043295;28;20044;-81
2023/12/18 00:07:01;;;;;;;28.02;10.90;;;7.80;99.90;;;;;;5046429;28;20037;-80
2023/12/18 00:09:27;;;;;;;22.92;9.65;;;7.80;99.90;;;;;;5049204;28;20029;-80
2023/12/18 00:11:53;;;;;;;22.13;10.02;;;8.00;99.90;;;;;;5049641;28;20033;-79
2023/12/18 00:14:18;;;;;;;19.95;9.93;;;7.80;99.90;;;;;;5050096;28;20080;-82
2023/12/18 00:16:44;;;;;;;19.23;10.18;;;8.20;99.90;;;;;;5050980;28;20048;-80
2023/12/18 00:19:10;;;;;;;24.95;10.63;;;8.20;99.90;;;;;;5045045;28;20067;-80
2023/12/18 00:21:36;;;;;;;23.35;10.38;;;7.80;99.90;;;;;;5051035;28;20041;-80
2023/12/18 00:24:01;;;;;;;19.83;9.77;;;8.00;99.90;;;;;;5042854;28;20044;-80
2023/12/18 00:26:27;;;;;;;18.77;9.32;;;8.00;99.90;;;;;;5050958;28;20068;-80
2023/12/18 00:28:52;;;;;;;19.02;9.73;;;7.80;99.90;;;;;;5043665;28;20041;-81
2023/12/18 00:31:18;;;;;;;22.17;9.85;;;8.30;99.90;;;;;;5048965;28;20048;-80
2023/12/18 00:33:43;;;;;;;21.10;8.85;;;8.00;99.90;;;;;;5047791;28;20043;-80
2023/12/18 00:36:09;;;;;;;21.08;9.25;;;8.10;99.90;;;;;;5045937;28;20089;-80
2023/12/18 00:38:36;;;;;;;22.25;9.40;;;7.90;99.90;;;;;;5047594;28;20047;-80
2023/12/18 00:41:02;;;;;;;18.50;8.77;;;7.90;99.90;;;;;;5050635;28;20068;-79
2023/12/18 00:43:27;;;;;;;19.98;8.80;;;7.90;99.90;;;;;;5042762;28;20126;-80
2023/12/18 00:45:53;;;;;;;21.80;9.27;;;8.00;99.90;;;;;;5085121;28;20411;-79
2023/12/18 00:48:18;;;;;;;26.95;8.65;;;7.90;99.90;;;;;;5082332;28;20041;-80
2023/12/18 00:50:44;;;;;;;23.38;9.15;;;8.00;99.90;;;;;;5080655;28;20037;-79
2023/12/18 00:53:10;;;;;;;19.65;8.25;;;8.30;99.90;;;;;;5046898;28;20033;-80
2023/12/18 00:55:36;;;;;;;17.23;8.40;;;8.00;99.90;;;;;;5046119;28;20044;-80
2023/12/18 00:58:01;;;;;;;19.55;8.68;;;8.00;99.90;;;;;;5046456;28;20040;-80
2023/12/18 01:00:27;;;;;;;24.38;8.43;;;8.00;99.90;;;;;;5047883;28;20040;-79
2023/12/18 01:02:52;;;;;;;22.60;7.78;;;8.00;99.90;;;;;;5043605;28;20405;-79
2023/12/18 01:05:18;;;;;;;22.02;9.00;;;8.10;99.90;;;;;;5050148;28;20048;-80
2023/12/18 01:07:43;;;;;;;17.95;8.02;;;8.20;99.90;;;;;;5081683;28;20559;-80
2023/12/18 01:10:09;;;;;;;21.08;8.38;;;8.00;99.90;;;;;;5080882;28;20121;-81
2023/12/18 01:12:35;;;;;;;22.13;8.07;;;8.00;99.90;;;;;;5046888;28;20045;-79
2023/12/18 01:15:01;;;;;;;26.20;7.82;;;8.40;99.90;;;;;;5046954;28;20072;-80
2023/12/18 01:17:26;;;;;;;19.33;8.77;;;8.00;99.90;;;;;;5029188;28;20045;-80
2023/12/18 01:19:52;;;;;;;19.75;8.07;;;8.40;99.90;;;;;;5046429;28;20090;-81
2023/12/18 01:22:18;;;;;;;20.35;8.15;;;8.10;99.90;;;;;;5046173;28;20420;-80
2023/12/18 01:24:43;;;;;;;20.20;7.75;;;8.00;99.90;;;;;;5050483;28;20064;-80
2023/12/18 01:27:09;;;;;;;23.48;8.27;;;8.00;99.90;;;;;;5046464;28;20682;-80
2023/12/18 01:29:39;;;;;;;22.50;7.95;;;8.10;99.90;;;;;;5050514;28;20412;-79
2023/12/18 01:32:05;;;;;;;17.52;8.18;;;8.10;99.90;;;;;;5047485;28;20543;-79
2023/12/18 01:34:30;;;;;;;21.38;7.65;;;8.10;99.90;;;;;;5045195;28;20076;-80
2023/12/18 01:36:56;;;;;;;20.17;7.90;;;8.30;99.90;;;;;;5082452;28;20064;-80
2023/12/18 01:39:22;;;;;;;22.40;7.90;;;8.00;99.90;;;;;;5046014;28;20041;-81
2023/12/18 01:41:47;;;;;;;19.45;7.45;;;8.30;99.90;;;;;;5050129;28;20520;-80
2023/12/18 01:44:13;;;;;;;17.52;7.75;;;8.00;99.90;;;;;;5046999;28;20048;-81
2023/12/18 01:46:39;;;;;;;18.17;7.30;;;8.10;99.90;;;;;;5050247;28;20124;-80
2023/12/18 01:49:05;;;;;;;15.52;7.63;;;8.10;99.90;;;;;;5048709;28;20064;-80
2023/12/18 01:51:30;;;;;;;19.50;7.50;;;8.10;99.90;;;;;;5080950;28;20071;-80
2023/12/18 01:53:58;;;;;;;21.85;7.53;;;8.20;99.90;;;;;;5047742;28;20037;-81
2023/12/18 01:56:30;;;;;;;19.13;8.07;;;8.20;99.90;;;;;;5050014;28;20071;-79
2023/12/18 01:58:59;;;;;;;19.55;7.80;;;8.40;99.90;;;;;;5049478;28;20045;-80
2023/12/18 02:01:26;;;;;;;18.30;7.57;;;8.10;99.90;;;;;;5033148;28;20041;-81
2023/12/18 02:03:53;;;;;;;20.27;8.05;;;8.20;99.90;;;;;;5050801;28;20045;-79
2023/12/18 02:06:19;;;;;;;20.35;7.88;;;8.00;99.90;;;;;;5049058;28;20488;-80
2023/12/18 02:08:45;;;;;;;21.30;7.28;;;8.00;99.90;;;;;;5043365;28;20094;-80
2023/12/18 02:11:12;;;;;;;19.65;7.43;;;8.00;99.90;;;;;;5042744;28;20068;-80
2023/12/18 02:13:39;;;;;;;18.73;7.00;;;8.00;99.90;;;;;;5041317;28;20044;-79
2023/12/18 02:16:05;;;;;;;18.13;7.05;;;8.10;99.90;;;;;;5049544;28;20033;-80
2023/12/18 02:18:31;;;;;;;19.85;7.10;;;8.00;99.90;;;;;;5047619;28;20573;-80
2023/12/18 02:20:57;;;;;;;16.67;7.28;;;8.00;99.90;;;;;;5037561;28;20048;-80
2023/12/18 02:23:23;;;;;;;14.10;6.53;;;8.00;99.90;;;;;;5038552;28;20052;-79
2023/12/18 02:25:48;;;;;;;19.65;7.15;;;8.10;99.90;;;;;;5045196;28;20057;-80
2023/12/18 02:28:16;;;;;;;22.00;7.05;;;8.10;99.90;;;;;;5034426;28;20037;-79
2023/12/18 02:30:42;;;;;;;18.13;6.70;;;8.10;99.90;;;;;;5036332;28;20040;-80
2023/12/18 02:33:07;;;;;;;17.77;7.45;;;8.10;99.90;;;;;;5053867;28;20033;-80
2023/12/18 02:35:33;;;;;;;15.38;6.82;;;8.40;99.90;;;;;;5051223;28;20067;-79
2023/12/18 02:37:59;;;;;;;22.58;6.63;;;8.10;99.90;;;;;;5053583;28;20036;-80
2023/12/18 02:40:26;;;;;;;14.32;6.20;;;8.20;99.90;;;;;;5050936;28;20057;-80
2023/12/18 02:42:51;;;;;;;15.55;6.97;;;8.10;99.90;;;;;;5086361;28;20047;-80
2023/12/18 02:45:17;;;;;;;19.80;7.90;;;8.20;99.90;;;;;;5081619;28;20037;-80
2023/12/18 02:47:43;;;;;;;16.77;6.18;;;8.10;99.90;;;;;;5046089;28;20033;-80
2023/12/18 02:50:08;;;;;;;15.10;5.85;;;8.10;99.90;;;;;;5043741;28;20405;-81
2023/12/18 02:52:34;;;;;;;16.73;6.40;;;8.10;99.90;;;;;;5045500;28;20036;-80
2023/12/18 02:55:00;;;;;;;16.83;6.93;;;8.10;99.90;;;;;;5048677;28;20037;-79
2023/12/18 02:57:26;;;;;;;15.52;6.38;;;8.00;99.90;;;;;;5046951;28;20048;-79
2023/12/18 02:59:52;;;;;;;16.83;6.40;;;8.10;99.90;;;;;;5046051;28;20504;-80
2023/12/18 03:02:17;;;;;;;13.93;5.63;;;8.30;99.90;;;;;;5051829;28;20037;-80
2023/12/18 03:04:43;;;;;;;16.23;6.10;;;8.10;99.90;;;;;;5046829;28;20036;-79
2023/12/18 03:07:09;;;;;;;16.67;6.68;;;8.10;99.90;;;;;;5049280;28;20029;-80
2023/12/18 03:09:36;;;;;;;17.00;6.10;;;8.20;99.90;;;;;;5051534;28;20040;-79
2023/12/18 03:12:02;;;;;;;16.50;6.60;;;8.10;99.90;;;;;;5068814;28;20548;-81
2023/12/18 03:14:27;;;;;;;10.80;6.35;;;8.10;99.90;;;;;;5050585;28;20128;-80
2023/12/18 03:16:53;;;;;;;15.27;5.68;;;8.30;99.90;;;;;;5052154;28;20033;-79
2023/12/18 03:19:19;;;;;;;20.42;6.82;;;8.10;99.90;;;;;;5051922;28;20073;-79
2023/12/18 03:21:45;;;;;;;18.77;6.15;;;8.40;99.90;;;;;;5047077;28;20051;-79
2023/12/18 03:24:11;;;;;;;13.70;5.50;;;8.10;99.90;;;;;;5051744;28;20037;-80
2023/12/18 03:26:37;;;;;;;15.13;5.82;;;8.40;99.90;;;;;;5048527;28;20029;-80
2023/12/18 03:29:03;;;;;;;16.60;6.28;;;8.30;99.90;;;;;;5048968;28;20069;-80
2023/12/18 03:31:29;;;;;;;18.88;6.75;;;8.20;99.90;;;;;;5077673;28;20045;-80
2023/12/18 03:33:54;;;;;;;17.92;6.43;;;8.50;99.90;;;;;;5051079;28;20584;-80
2023/12/18 03:36:20;;;;;;;16.75;5.68;;;8.30;99.90;;;;;;5052168;28;20532;-80
2023/12/18 03:38:46;;;;;;;15.88;6.20;;;8.30;99.90;;;;;;5048068;28;20037;-80
2023/12/18 03:41:12;;;;;;;13.35;5.60;;;8.20;99.90;;;;;;5046081;28;20120;-80
2023/12/18 03:43:38;;;;;;;18.35;6.20;;;8.20;99.90;;;;;;5049735;28;20044;-79
2023/12/18 03:46:04;;;;;;;17.00;5.78;;;8.20;99.90;;;;;;5051139;28;20105;-80
2023/12/18 03:48:30;;;;;;;13.57;6.05;;;8.40;99.90;;;;;;5050978;28;20040;-81
2023/12/18 03:50:55;;;;;;;14.40;6.43;;;8.20;99.90;;;;;;5084344;28;20044;-79
2023/12/18 03:53:21;;;;;;;18.90;6.35;;;8.10;99.90;;;;;;5053742;28;20424;-82
2023/12/18 03:55:47;;;;;;;26.55;7.53;;;8.20;99.90;;;;;;5030633;28;20076;-80
2023/12/18 03:58:13;;;;;;;21.80;7.07;;;8.20;99.90;;;;;;5050700;28;20044;-80
2023/12/18 04:00:38;;;;;;;16.48;6.68;;;8.20;99.90;;;;;;5047894;28;20114;-80
2023/12/18 04:03:04;;;;;;;17.20;6.20;;;8.20;99.90;;;;;;5034776;28;20124;-80
2023/12/18 04:05:30;;;;;;;18.35;7.00;;;8.20;99.90;;;;;;5050544;28;20055;-80
2023/12/18 04:07:56;;;;;;;16.42;6.20;;;8.10;99.90;;;;;;5049261;28;20033;-80
2023/12/18 04:10:22;;;;;;;15.95;6.22;;;8.20;99.90;;;;;;5053052;28;20037;-80
2023/12/18 04:12:47;;;;;;;18.38;6.72;;;8.20;99.90;;;;;;5047108;28;20040;-80
2023/12/18 04:15:13;;;;;;;15.10;5.97;;;8.30;99.90;;;;;;5051694;28;20036;-80
2023/12/18 04:17:39;;;;;;;21.92;6.95;;;8.20;99.90;;;;;;5050880;28;20147;-80
2023/12/18 04:20:06;;;;;;;15.85;6.30;;;8.20;99.90;;;;;;5050458;28;20420;-81
2023/12/18 04:22:32;;;;;;;16.98;6.55;;;8.20;99.90;;;;;;5047486;28;20455;-80
2023/12/18 04:24:58;;;;;;;23.45;7.22;;;8.20;99.90;;;;;;5046065;28;20040;-79
2023/12/18 04:27:24;;;;;;;14.63;6.28;;;8.40;99.90;;;;;;5050220;28;20393;-80
2023/12/18 04:29:49;;;;;;;14.73;6.65;;;8.50;99.90;;;;;;5050561;28;20037;-80
2023/12/18 04:32:15;;;;;;;18.50;6.72;;;8.50;99.90;;;;;;5032012;28;20033;-80
2023/12/18 04:34:42;;;;;;;17.42;6.75;;;8.20;99.90;;;;;;5049533;28;20121;-80
2023/12/18 04:37:09;;;;;;;22.63;7.47;;;8.40;99.90;;;;;;5043980;28;20039;-79
2023/12/18 04:39:34;;;;;;;19.25;7.47;;;8.30;99.90;;;;;;5049463;28;20083;-79
2023/12/18 04:42:00;;;;;;;13.82;7.10;;;8.50;99.90;;;;;;5051409;28;20036;-79
2023/12/18 04:44:26;;;;;;;16.05;7.60;;;8.40;99.90;;;;;;5050317;28;20064;-79
2023/12/18 04:46:52;;;;;;;20.35;7.72;;;8.20;99.90;;;;;;5083975;28;20468;-80
2023/12/18 04:49:18;;;;;;;25.55;8.57;;;8.20;99.90;;;;;;5080774;28;20030;-80
2023/12/18 04:51:44;;;;;;;18.00;7.90;;;8.40;99.90;;;;;;5050240;28;20033;-80
2023/12/18 04:54:10;;;;;;;20.83;8.23;;;8.20;99.90;;;;;;5048099;28;20052;-80
2023/12/18 04:56:36;;;;;;;21.52;8.07;;;8.40;99.90;;;;;;5050200;28;20082;-79
2023/12/18 04:59:01;;;;;;;19.65;8.00;;;8.20;99.90;;;;;;5047188;28;20033;-80
2023/12/18 05:01:28;;;;;;;18.10;8.38;;;8.40;99.90;;;;;;5049279;28;20130;-79
2023/12/18 05:03:53;;;;;;;18.58;7.90;;;8.20;99.90;;;;;;5044814;28;20117;-79
2023/12/18 05:06:29;;;;;;;15.55;7.50;;;8.20;99.90;;;;;;5044643;28;20524;-79
2023/12/18 05:08:55;;;;;;;20.95;8.15;;;8.20;99.90;;;;;;5046401;28;20040;-79
2023/12/18 05:11:22;;;;;;;17.77;8.15;;;8.30;99.90;;;;;;5045239;28;20044;-80
2023/12/18 05:13:48;;;;;;;18.80;8.10;;;8.20;99.90;;;;;;5044156;28;20071;-80
2023/12/18 05:16:15;;;;;;;16.70;7.40;;;8.40;99.90;;;;;;5030726;28;20088;-80
2023/12/18 05:18:41;;;;;;;16.10;7.47;;;8.20;99.90;;;;;;5042610;28;20051;-80
2023/12/18 05:21:07;;;;;;;19.02;6.78;;;8.20;99.90;;;;;;5070305;28;20037;-80
2023/12/18 05:23:33;;;;;;;18.55;7.10;;;8.50;99.90;;;;;;5049194;28;20037;-80
2023/12/18 05:25:59;;;;;;;16.00;6.47;;;8.40;99.90;;;;;;5049386;28;20500;-80
2023/12/18 05:28:25;;;;;;;20.67;6.88;;;8.40;99.90;;;;;;5050501;28;20055;-80
2023/12/18 05:30:51;;;;;;;21.67;7.80;;;8.30;99.90;;;;;;5050371;28;20043;-80
2023/12/18 05:33:17;;;;;;;23.35;6.75;;;8.70;99.90;;;;;;5043703;28;20041;-80
2023/12/18 05:35:43;;;;;;;25.48;7.20;;;8.50;99.90;;;;;;5040467;28;20043;-79
2023/12/18 05:38:08;;;;;;;17.98;7.25;;;8.40;99.90;;;;;;5048201;28;20086;-80
2023/12/18 05:40:37;;;;;;;24.15;7.85;;;8.40;99.90;;;;;;5047233;28;20036;-80
2023/12/18 05:43:04;;;;;;;19.95;7.30;;;8.60;99.90;;;;;;5028089;28;20074;-79
2023/12/18 05:45:31;;;;;;;16.13;7.25;;;8.60;99.90;;;;;;5050095;28;20037;-79
2023/12/18 05:47:57;;;;;;;15.75;6.90;;;8.60;99.90;;;;;;5046141;28;20080;-81
2023/12/18 05:50:23;;;;;;;21.83;7.10;;;8.60;99.90;;;;;;5046418;28;20056;-80
2023/12/18 05:52:48;;;;;;;15.77;6.80;;;8.50;99.90;;;;;;5046514;28;20165;-79
2023/12/18 05:55:14;;;;;;;15.77;7.18;;;8.50;99.90;;;;;;5046058;28;20036;-80
2023/12/18 05:57:41;;;;;;;16.67;6.45;;;8.60;99.90;;;;;;5046485;28;20036;-80
2023/12/18 06:00:09;;;;;;;16.60;7.30;;;8.40;99.90;;;;;;5044500;28;20041;-81
2023/12/18 06:02:38;;;;;;;16.80;7.68;;;8.40;99.90;;;;;;5051946;28;20102;-80
2023/12/18 06:05:04;;;;;;;19.27;7.85;;;8.40;99.90;;;;;;5051237;28;20033;-80
2023/12/18 06:07:30;;;;;;;21.50;8.20;;;8.40;99.90;;;;;;5052796;28;20037;-79
2023/12/18 06:09:55;;;;;;;23.92;8.85;;;8.40;99.90;;;;;;5052833;28;20055;-80
2023/12/18 06:12:21;;;;;;;19.30;8.30;;;8.30;99.90;;;;;;5048521;28;20172;-79
2023/12/18 06:14:47;;;;;;;22.65;9.07;;;8.30;99.90;;;;;;5050642;28;20106;-80
2023/12/18 06:17:13;;;;;;;18.88;9.13;;;8.50;99.90;;;;;;5050312;28;20072;-81
2023/12/18 06:19:38;;;;;;;20.10;9.32;;;8.30;99.90;;;;;;5052742;28;20072;-80
2023/12/18 06:22:04;;;;;;;21.52;9.63;;;8.20;99.90;;;;;;5050723;28;20033;-79
2023/12/18 06:24:30;;;;;;;20.67;10.68;;;8.50;99.90;;;;;;5049596;28;20044;-80
2023/12/18 06:26:56;;;;;;;22.02;10.43;;;8.40;99.90;;;;;;5048236;28;20107;-80
2023/12/18 06:29:28;;;;;;;21.38;9.82;;;8.30;99.90;;;;;;5053058;28;20395;-80
2023/12/18 06:31:54;;;;;;;26.17;10.63;;;8.20;99.90;;;;;;5052384;28;20029;-81
2023/12/18 06:34:19;;;;;;;23.98;10.48;;;8.40;99.90;;;;;;5052905;28;20029;-80
2023/12/18 06:36:45;;;;;;;25.23;10.13;;;8.20;99.90;;;;;;5051489;28;20033;-80
2023/12/18 06:39:13;;;;;;;23.27;10.27;;;8.30;99.90;;;;;;5049630;28;20037;-80
2023/12/18 06:41:39;;;;;;;24.48;11.05;;;8.50;99.90;;;;;;5052181;28;20743;-79
2023/12/18 06:44:05;;;;;;;20.80;10.27;;;8.20;99.90;;;;;;5052286;28;20123;-80
2023/12/18 06:46:32;;;;;;;21.13;10.55;;;8.20;99.90;;;;;;5047802;28;20037;-80
2023/12/18 06:48:58;;;;;;;20.08;10.65;;;8.10;99.90;;;;;;5036257;28;20048;-80
2023/12/18 06:51:24;;;;;;;21.50;10.30;;;8.20;99.90;;;;;;5044535;28;20425;-80
2023/12/18 06:53:50;;;;;;;23.77;11.23;;;8.20;99.90;;;;;;5047924;28;20141;-80
2023/12/18 06:56:16;;;;;;;22.88;10.98;;;8.10;99.90;;;;;;5029545;28;20094;-79
2023/12/18 06:58:41;;;;;;;25.73;11.38;;;8.30;99.90;;;;;;5051018;28;20116;-80
2023/12/18 07:01:07;;;;;;;21.52;11.15;;;8.30;99.90;;;;;;5052098;28;20531;-80
2023/12/18 07:03:33;;;;;;;25.38;10.52;;;8.20;99.90;;;;;;5051352;28;20047;-80
2023/12/18 07:05:59;;;;;;;20.40;10.55;;;8.10;99.90;;;;;;5048358;28;20068;-79
2023/12/18 07:08:24;;;;;;;26.05;10.73;;;8.10;99.90;;;;;;5065712;28;20043;-79
2023/12/18 07:10:50;;;;;;;24.92;12.20;;;8.10;99.90;;;;;;5046920;28;20132;-80
2023/12/18 07:13:16;;;;;;;24.58;11.48;;;8.10;99.90;;;;;;5048169;28;20037;-80
2023/12/18 07:15:42;;;;;;;21.15;10.60;;;8.20;99.90;;;;;;5051318;28;20049;-80
2023/12/18 07:18:08;;;;;;;27.88;11.25;;;8.10;99.90;;;;;;5050485;28;20037;-79
2023/12/18 07:20:34;;;;;;;22.80;10.55;;;8.10;99.90;;;;;;5048536;28;20435;-79
2023/12/18 07:22:59;;;;;;;24.75;10.90;;;8.20;99.90;;;;;;5049476;28;20033;-79
2023/12/18 07:25:25;;;;;;;27.88;10.80;;;8.40;99.90;;;;;;5048287;28;20488;-81
2023/12/18 07:27:51;;;;;;;22.00;10.23;;;8.30;99.90;;;;;;5049035;28;20033;-80
2023/12/18 07:30:17;;;;;;;24.40;11.48;;;8.10;99.90;;;;;;5049841;28;20087;-80
2023/12/18 07:32:43;;;;;;;21.00;10.65;;;8.20;99.90;;;;;;5048513;28;20047;-79
2023/12/18 07:35:08;;;;;;;29.52;11.10;;;8.20;99.90;;;;;;5047211;28;20532;-79
2023/12/18 07:37:34;;;;;;;25.02;10.82;;;8.40;99.90;;;;;;5049019;28;20489;-80
2023/12/18 07:40:00;;;;;;;26.83;11.70;;;8.10;99.90;;;;;;5051834;28;20037;-80
2023/12/18 07:42:26;;;;;;;22.20;10.82;;;8.20;99.90;;;;;;5045265;28;20073;-80
2023/12/18 07:44:53;;;;;;;22.23;11.55;;;8.20;99.90;;;;;;5047381;28;20535;-79
2023/12/18 07:47:18;;;;;;;20.50;11.73;;;8.40;99.90;;;;;;5049877;28;20111;-80
2023/12/18 07:49:44;;;;;;;22.00;11.48;;;8.20;99.90;;;;;;5041842;28;20140;-80
2023/12/18 07:52:10;;;;;;;25.02;10.48;;;8.30;99.90;;;;;;5076340;28;20052;-80
2023/12/18 07:54:36;;;;;;;20.83;10.20;;;8.30;99.90;;;;;;5079092;28;20501;-80
2023/12/18 07:57:04;;;;;;;26.75;10.10;;;8.40;99.90;;;;;;5037538;28;20032;-80
2023/12/18 07:59:30;;;;;;;23.67;10.68;;;8.20;99.90;;;;;;5052915;28;20051;-80
2023/12/18 08:01:55;;;;;;;25.00;11.25;;;8.30;99.90;;;;;;5035890;28;20408;-80
2023/12/18 08:04:21;;;;;;;24.08;10.88;;;8.20;99.90;;;;;;5051642;28;20102;-79
2023/12/18 08:06:52;;;;;;;22.88;10.73;;;8.30;99.90;;;;;;5034170;28;20064;-80
2023/12/18 08:09:18;;;;;;;22.33;10.18;;;8.50;99.90;;;;;;5084436;28;20086;-80
2023/12/18 08:11:43;;;;;;;29.02;11.60;;;8.20;99.90;;;;;;5048621;28;20029;-79
2023/12/18 08:14:09;;;;;;;19.98;9.48;;;8.30;99.90;;;;;;5049987;28;20048;-80
2023/12/18 08:16:35;;;;;;;23.88;10.23;;;8.50;99.90;;;;;;5085231;28;20055;-79
2023/12/18 08:19:00;;;;;;;30.25;12.13;;;8.30;99.90;;;;;;5051283;28;20040;-80
2023/12/18 08:21:27;;;;;;;21.83;10.45;;;8.30;99.90;;;;;;5030757;28;20034;-80
2023/12/18 08:23:52;;;;;;;26.13;11.23;;;8.50;99.90;;;;;;5050589;28;20040;-80
2023/12/18 08:26:18;;;;;;;24.27;10.43;;;8.30;99.90;;;;;;5051723;28;20037;-80
2023/12/18 08:28:44;;;;;;;27.70;11.25;;;8.60;99.90;;;;;;5049531;28;20032;-79
2023/12/18 08:31:11;;;;;;;25.20;10.80;;;8.60;99.90;;;;;;5044872;28;20084;-80
2023/12/18 08:33:39;;;;;;;20.65;11.10;;;8.40;99.90;;;;;;5049490;28;20498;-79
2023/12/18 08:36:05;;;;;;;33.55;10.73;;;8.40;99.90;;;;;;5032279;28;20040;-79
2023/12/18 08:38:32;;;;;;;26.65;11.02;;;8.40;99.90;;;;;;5041747;28;20051;-80
2023/12/18 08:40:58;;;;;;;23.08;10.30;;;8.60;99.90;;;;;;5045956;28;20041;-80
2023/12/18 08:43:24;;;;;;;25.55;10.35;;;8.40;99.90;;;;;;5041404;28;20033;-80
2023/12/18 08:45:50;;;;;;;29.30;10.48;;;8.40;99.90;;;;;;5043895;28;20485;-81
2023/12/18 08:48:15;;;;;;;25.15;10.38;;;8.80;99.90;;;;;;5045146;28;20033;-80
2023/12/18 08:50:42;;;;;;;22.65;10.63;;;8.60;99.90;;;;;;5048066;28;20174;-80
2023/12/18 08:53:07;;;;;;;19.55;10.65;;;8.50;99.90;;;;;;5034309;28;20068;-81
2023/12/18 08:55:38;;;;;;;21.13;10.02;;;8.70;99.90;;;;;;5043460;28;20040;-79
2023/12/18 08:58:07;;;;;;;28.25;11.38;;;8.50;99.90;;;;;;5050498;28;20037;-80
2023/12/18 09:00:32;;;;;;;28.42;10.75;;;8.50;99.90;;;;;;5041974;28;20052;-80
2023/12/18 09:02:58;;;;;;;25.02;10.07;;;8.80;99.90;;;;;;5044194;28;20083;-79
2023/12/18 09:05:24;;;;;;;26.75;10.68;;;8.80;99.90;;;;;;5044957;28;20512;-79
2023/12/18 09:07:50;;;;;;;22.77;9.95;;;8.60;99.90;;;;;;5047174;28;20045;-80
2023/12/18 09:10:17;;;;;;;19.67;9.38;;;8.70;99.90;;;;;;5040283;28;20037;-80
2023/12/18 09:12:44;;;;;;;22.30;9.60;;;8.60;99.90;;;;;;5049318;28;20059;-79
2023/12/18 09:15:10;;;;;;;22.60;10.75;;;8.60;99.90;;;;;;5050455;28;20132;-79
2023/12/18 09:17:36;;;;;;;19.67;10.32;;;8.60;99.90;;;;;;5046195;28;20064;-80
2023/12/18 09:20:02;;;;;;;20.77;11.00;;;8.80;99.90;;;;;;5050261;28;20086;-80
2023/12/18 09:22:28;;;;;;;30.08;11.95;;;8.50;99.90;;;;;;5050355;28;20052;-80
2023/12/18 09:24:54;;;;;;;25.27;11.10;;;8.70;99.90;;;;;;5050319;28;20129;-79
2023/12/18 09:27:20;;;;;;;23.67;11.23;;;8.60;99.90;;;;;;5048981;28;20041;-79
2023/12/18 09:29:45;;;;;;;23.33;11.75;;;8.80;99.90;;;;;;5028471;28;20123;-80
2023/12/18 09:32:11;;;;;;;21.08;10.55;;;8.50;99.90;;;;;;5044780;28;20068;-79
2023/12/18 09:34:37;;;;;;;28.40;11.82;;;8.50;99.90;;;;;;5048998;28;20029;-80
2023/12/18 09:37:02;;;;;;;21.25;12.07;;;8.50;99.90;;;;;;5047810;28;20137;-79
2023/12/18 09:39:28;;;;;;;27.88;11.88;;;8.50;99.90;;;;;;5049955;28;20507;-79
2023/12/18 09:42:00;;;;;;;24.02;12.30;;;8.60;99.90;;;;;;5049796;28;20116;-80
2023/12/18 09:44:26;;;;;;;22.77;11.52;;;8.70;99.90;;;;;;5049732;28;20536;-80
2023/12/18 09:46:52;;;;;;;23.05;12.10;;;8.40;99.90;;;;;;5050176;28;20126;-79
2023/12/18 09:49:18;;;;;;;26.60;12.93;;;8.50;99.90;;;;;;5049607;28;20056;-79
2023/12/18 09:51:45;;;;;;;22.90;12.82;;;8.80;99.90;;;;;;5049308;28;20041;-79
2023/12/18 09:54:12;;;;;;;34.42;14.00;;;8.70;99.90;;;;;;5049202;28;20040;-80
2023/12/18 09:56:38;;;;;;;25.98;12.88;;;8.60;99.90;;;;;;5033148;28;20121;-79
2023/12/18 09:59:04;;;;;;;22.52;12.35;;;8.60;99.90;;;;;;5050074;28;20040;-79
2023/12/18 10:01:30;;;;;;;29.25;14.38;;;8.80;99.90;;;;;;5072809;28;20531;-79
2023/12/18 10:03:56;;;;;;;28.80;14.65;;;8.60;99.90;;;;;;5052086;28;20038;-80
2023/12/18 10:06:21;;;;;;;29.75;13.82;;;8.50;99.90;;;;;;5082856;28;20033;-79
2023/12/18 10:08:50;;;;;;;25.15;13.02;;;8.80;99.90;;;;;;5049849;28;20041;-79
2023/12/18 10:11:24;;;;;;;34.90;13.63;;;8.50;99.90;;;;;;5045509;28;20059;-79
2023/12/18 10:13:51;;;;;;;;;;;8.70;99.90;;;;;;5050304;28;20147;-80
2023/12/18 10:16:16;;;;;;;29.48;15.50;;;8.50;99.90;;;;;;5022369;28;19924;-79
2023/12/18 10:18:42;;;;;;;29.33;15.20;;;8.60;99.90;;;;;;5045248;28;20492;-79
2023/12/18 10:21:11;;;;;;;31.17;16.05;;;8.50;99.90;;;;;;5026931;28;20463;-80
2023/12/18 10:23:41;;;;;;;31.33;15.30;;;8.70;99.90;;;;;;5032539;28;20048;-79
2023/12/18 10:26:06;;;;;;;28.00;15.73;;;8.50;99.90;;;;;;5050429;28;20456;-79
2023/12/18 10:28:32;;;;;;;32.33;15.85;;;8.50;99.90;;;;;;5049381;28;20079;-80
2023/12/18 10:30:58;;;;;;;32.67;15.18;;;8.70;99.90;;;;;;5048654;28;20060;-79
2023/12/18 10:33:25;;;;;;;29.10;16.20;;;8.80;99.90;;;;;;5041815;28;20044;-79
2023/12/18 10:35:53;;;;;;;28.75;16.45;;;8.50;99.90;;;;;;5027126;28;20051;-79
2023/12/18 10:38:22;;;;;;;30.45;16.38;;;8.70;99.90;;;;;;5048555;28;20037;-79
2023/12/18 10:40:54;;;;;;;28.05;15.73;;;8.60;99.90;;;;;;5049794;28;20048;-79
2023/12/18 10:43:27;;;;;;;28.38;17.00;;;8.70;99.90;;;;;;5051412;28;20037;-79
2023/12/18 10:45:56;;;;;;;32.40;17.38;;;8.50;99.90;;;;;;5052532;28;20029;-79
2023/12/18 10:48:24;;;;;;;29.17;16.10;;;8.50;99.90;;;;;;5049810;28;20048;-80
2023/12/18 10:50:52;;;;;;;37.08;17.25;;;8.50;99.90;;;;;;5051773;28;20029;-79
2023/12/18 10:53:18;;;;;;;34.75;16.65;;;8.70;99.90;;;;;;5048662;28;20067;-80
2023/12/18 10:55:44;;;;;;;28.25;16.67;;;8.70;99.90;;;;;;5050653;28;21547;-80
2023/12/18 10:58:11;;;;;;;29.48;16.63;;;8.50;99.90;;;;;;5049560;28;20289;-79
2023/12/18 11:00:38;;;;;;;27.35;16.88;;;8.70;99.90;;;;;;5048859;28;20087;-79
2023/12/18 11:03:05;;;;;;;29.95;17.27;;;8.60;99.90;;;;;;5041662;28;20080;-80
2023/12/18 11:05:32;;;;;;;33.53;16.85;;;8.70;99.90;;;;;;5039942;28;20044;-79
2023/12/18 11:07:58;;;;;;;25.67;15.35;;;8.80;99.90;;;;;;5035832;28;20124;-79
2023/12/18 11:10:27;;;;;;;28.00;16.88;;;8.70;99.90;;;;;;5034650;28;20060;-79
2023/12/18 11:13:26;;;;;;;28.70;15.90;;;8.80;99.90;;;;;;5047617;28;20047;-79
2023/12/18 11:15:58;;;;;;;25.45;16.33;;;8.60;99.90;;;;;;5048222;28;20412;-80
2023/12/18 11:18:42;;;;;;;32.65;16.67;;;8.60;99.90;;;;;;5034367;28;20037;-80
2023/12/18 11:21:07;;;;;;;;;;;8.60;99.90;;;;;;5047758;28;20408;-79
2023/12/18 11:23:39;;;;;;;28.60;16.10;;;8.60;99.90;;;;;;5085402;28;19928;-80
2023/12/18 11:26:10;;;;;;;31.42;16.50;;;8.60;99.90;;;;;;5056348;28;20071;-80
2023/12/18 11:28:36;;;;;;;39.05;18.75;;;8.80;99.90;;;;;;5084879;28;20045;-79
2023/12/18 11:31:04;;;;;;;36.63;17.63;;;8.60;99.90;;;;;;5049492;28;20028;-79
2023/12/18 11:33:30;;;;;;;34.45;17.23;;;8.60;99.90;;;;;;5051200;28;20068;-79
2023/12/18 11:35:57;;;;;;;31.65;15.88;;;8.80;99.90;;;;;;5084664;28;20595;-79
2023/12/18 11:38:24;;;;;;;27.35;16.33;;;8.90;99.90;;;;;;5078336;28;20501;-79
2023/12/18 11:40:52;;;;;;;29.63;16.20;;;9.00;99.90;;;;;;5061132;28;20099;-79
2023/12/18 11:43:41;;;;;;;36.60;17.92;;;8.90;99.90;;;;;;5076438;28;20051;-79
2023/12/18 11:46:08;;;;;;;34.72;16.63;;;8.70;99.90;;;;;;5049746;28;20432;-80
2023/12/18 11:48:34;;;;;;;31.45;17.73;;;8.80;99.90;;;;;;5081317;28;20098;-80
2023/12/18 11:51:02;;;;;;;35.33;15.98;;;8.80;99.90;;;;;;5048570;28;20028;-79
2023/12/18 11:53:36;;;;;;;35.00;16.95;;;8.70;99.90;;;;;;5048236;28;20119;-79
2023/12/18 11:56:08;;;;;;;;;;;8.80;99.90;;;;;;5066623;28;20127;-79
2023/12/18 11:58:36;;;;;;;30.48;14.75;;;8.80;99.90;;;;;;5030655;28;19916;-79
2023/12/18 12:01:02;;;;;;;29.92;15.82;;;8.80;99.90;;;;;;5047991;28;20384;-83
2023/12/18 12:03:30;;;;;;;31.02;15.05;;;8.80;99.90;;;;;;5050316;28;20123;-78
2023/12/18 12:05:57;;;;;;;31.25;15.35;;;8.80;99.90;;;;;;5081690;28;20135;-78
2023/12/18 12:08:22;;;;;;;24.67;14.30;;;8.90;99.90;;;;;;5029002;28;20136;-78
2023/12/18 12:10:51;;;;;;;31.70;15.43;;;9.00;99.90;;;;;;5051213;28;20119;-79
2023/12/18 12:13:23;;;;;;;26.13;13.85;;;8.90;99.90;;;;;;5049193;28;20120;-80
2023/12/18 12:15:58;;;;;;;21.88;13.60;;;8.90;99.90;;;;;;5029190;28;20048;-79
2023/12/18 12:18:26;;;;;;;30.10;14.32;;;9.00;99.90;;;;;;5074999;28;20059;-79
2023/12/18 12:20:51;;;;;;;30.60;14.93;;;9.10;99.90;;;;;;5040420;28;20041;-79
2023/12/18 12:23:17;;;;;;;26.80;14.63;;;9.00;99.90;;;;;;5045790;28;20047;-80
2023/12/18 12:25:43;;;;;;;26.65;14.43;;;9.10;99.90;;;;;;5045197;28;20124;-80
2023/12/18 12:28:09;;;;;;;29.17;14.77;;;9.00;99.90;;;;;;5046301;28;20032;-79
2023/12/18 12:30:35;;;;;;;25.45;14.00;;;9.10;99.90;;;;;;5050594;28;20409;-79
2023/12/18 12:33:04;;;;;;;28.85;14.07;;;9.20;99.90;;;;;;5049008;28;20047;-78
2023/12/18 12:35:33;;;;;;;24.95;15.00;;;9.10;99.90;;;;;;5050555;28;20037;-79
2023/12/18 12:38:01;;;;;;;29.15;14.23;;;9.20;99.90;;;;;;5051050;28;20120;-79
2023/12/18 12:40:37;;;;;;;26.63;14.23;;;9.20;99.90;;;;;;5046291;28;20048;-79